createdAt,value
2022-12-28T00:04:05.701Z,62.47
2022-12-28T00:09:10.833Z,62.41
2022-12-28T00:14:12.498Z,62.05
2022-12-28T00:19:16.039Z,62.18
2022-12-28T00:24:22.956Z,61.82
2022-12-28T00:29:24.624Z,61.60
2022-12-28T00:34:26.205Z,62.02
2022-12-28T00:39:27.745Z,61.79
2022-12-28T00:44:29.247Z,61.62
2022-12-28T00:49:30.710Z,61.73
2022-12-28T00:54:32.233Z,61.65
2022-12-28T00:59:33.826Z,61.16
2022-12-28T01:04:35.369Z,60.91
2022-12-28T01:09:36.839Z,60.83
2022-12-28T01:14:38.283Z,61.84
2022-12-28T01:19:39.868Z,62.71
2022-12-28T01:24:41.367Z,62.75
2022-12-28T01:29:42.930Z,62.77
2022-12-28T01:34:44.733Z,62.37
2022-12-28T01:39:47.167Z,62.20
2022-12-28T01:44:51.475Z,61.77
2022-12-28T01:49:56.816Z,62.55
2022-12-28T01:55:21.620Z,62.29
2022-12-28T02:00:25.065Z,62.80
2022-12-28T02:05:33.095Z,62.68
2022-12-28T02:10:42.327Z,62.42
2022-12-28T02:15:49.072Z,63.03
2022-12-28T02:21:05.811Z,62.83
2022-12-28T02:26:19.817Z,63.06
2022-12-28T02:31:26.258Z,63.30
2022-12-28T02:36:35.076Z,63.75
2022-12-28T02:41:41.342Z,64.32
2022-12-28T02:46:44.639Z,64.63
2022-12-28T02:52:09.127Z,63.38
2022-12-28T02:57:45.074Z,62.79
2022-12-28T03:03:11.571Z,63.01
2022-12-28T03:08:19.366Z,63.83
2022-12-28T03:13:30.653Z,63.79
2022-12-28T03:18:34.303Z,62.67
2022-12-28T03:23:39.334Z,62.52
2022-12-28T03:28:43.974Z,63.42
2022-12-28T03:33:49.086Z,64.23
2022-12-28T03:39:13.598Z,63.41
2022-12-28T03:44:27.701Z,63.48
2022-12-28T03:49:29.716Z,62.85
2022-12-28T03:54:31.482Z,61.75
2022-12-28T03:59:33.233Z,62.27
2022-12-28T04:04:36.582Z,63.32
2022-12-28T04:09:38.240Z,63.21
2022-12-28T04:14:40.137Z,62.36
2022-12-28T04:19:41.698Z,63.50
2022-12-28T04:24:43.281Z,63.93
2022-12-28T04:29:45.746Z,64.19
2022-12-28T04:34:53.326Z,63.72
2022-12-28T04:39:57.281Z,62.60
2022-12-28T04:44:59.193Z,62.46
2022-12-28T04:50:00.666Z,62.52
2022-12-28T04:55:02.299Z,61.98
2022-12-28T05:00:04.287Z,61.55
2022-12-28T05:05:06.282Z,61.01
2022-12-28T05:10:08.267Z,61.13
2022-12-28T05:15:10.309Z,61.15
2022-12-28T05:20:12.017Z,60.93
2022-12-28T05:25:13.645Z,61.10
2022-12-28T05:30:15.192Z,60.79
2022-12-28T05:35:16.802Z,60.80
2022-12-28T05:40:18.379Z,60.88
2022-12-28T05:45:19.865Z,60.42
2022-12-28T05:50:21.350Z,60.60
2022-12-28T05:55:22.876Z,60.58
2022-12-28T06:00:24.479Z,61.24
2022-12-28T06:05:26.024Z,60.80
2022-12-28T06:10:27.630Z,60.83
2022-12-28T06:15:29.166Z,61.49
2022-12-28T06:20:30.655Z,61.14
2022-12-28T06:25:32.224Z,61.17
2022-12-28T06:30:33.815Z,61.73
2022-12-28T06:35:35.327Z,61.84
2022-12-28T06:41:10.978Z,62.03
2022-12-28T06:45:58.509Z,61.56
2022-12-28T06:51:03.966Z,62.03
2022-12-28T06:56:08.462Z,61.80
2022-12-28T07:01:19.796Z,61.82
2022-12-28T07:06:23.643Z,61.57
2022-12-28T07:11:25.223Z,61.44
2022-12-28T07:21:34.045Z,61.60
2022-12-28T07:26:37.649Z,61.05
2022-12-28T07:31:45.292Z,61.69
2022-12-28T07:36:48.703Z,61.15
2022-12-28T07:41:50.222Z,60.56
2022-12-28T07:46:56.274Z,60.29
2022-12-28T07:51:57.763Z,60.64
2022-12-28T07:56:59.460Z,59.97
2022-12-28T08:02:01.310Z,59.57
2022-12-28T08:07:02.907Z,59.42
2022-12-28T08:12:04.830Z,59.19
2022-12-28T08:17:06.529Z,59.35
2022-12-28T08:22:08.006Z,58.62
2022-12-28T08:27:09.504Z,58.75
2022-12-28T08:32:11.049Z,59.36
2022-12-28T08:37:12.558Z,58.59
2022-12-28T08:42:14.108Z,57.84
2022-12-28T08:47:15.690Z,57.28
2022-12-28T08:52:17.268Z,57.75
2022-12-28T08:57:18.844Z,57.65
2022-12-28T09:02:20.779Z,57.21
2022-12-28T09:07:22.485Z,56.97
2022-12-28T09:12:24.054Z,56.50
2022-12-28T09:17:26.094Z,56.02
2022-12-28T09:22:27.746Z,55.84
2022-12-28T09:27:29.306Z,55.86
2022-12-28T09:32:30.835Z,55.51
2022-12-28T09:37:32.405Z,56.07
2022-12-28T09:42:41.199Z,55.36
2022-12-28T09:47:51.529Z,54.84
2022-12-28T09:53:05.154Z,55.05
2022-12-28T09:58:15.087Z,54.70
2022-12-28T10:03:27.350Z,54.01
2022-12-28T10:08:29.533Z,53.20
2022-12-28T10:13:54.221Z,54.00
2022-12-28T10:18:56.544Z,53.83
2022-12-28T10:29:23.047Z,51.82
2022-12-28T10:34:24.999Z,51.57
2022-12-28T10:39:32.507Z,50.77
2022-12-28T10:55:33.589Z,46.93
2022-12-28T11:00:35.188Z,44.44
2022-12-28T11:03:21.192Z,50.12
2022-12-28T11:05:36.889Z,44.27
2022-12-28T11:10:38.670Z,44.01
2022-12-28T11:15:40.181Z,41.54
2022-12-28T11:20:50.729Z,40.76
2022-12-28T11:25:52.588Z,37.52
2022-12-28T11:30:54.307Z,34.15
2022-12-28T11:35:59.834Z,32.27
2022-12-28T11:41:01.827Z,33.48
2022-12-28T11:46:21.733Z,35.82
2022-12-28T11:51:23.172Z,36.73
2022-12-28T11:56:47.554Z,36.31
2022-12-28T12:01:53.967Z,36.39
2022-12-28T12:06:55.445Z,36.41
2022-12-28T12:11:59.046Z,37.61
2022-12-28T12:17:05.986Z,36.57
2022-12-28T12:22:28.631Z,37.95
2022-12-28T12:27:30.081Z,37.50
2022-12-28T12:32:55.859Z,37.26
2022-12-28T12:38:25.374Z,38.29
2022-12-28T12:43:48.300Z,37.83
2022-12-28T12:49:20.740Z,38.15
2022-12-28T12:54:55.123Z,38.58
2022-12-28T13:00:01.809Z,37.38
2022-12-28T13:05:05.198Z,38.90
2022-12-28T13:10:14.501Z,38.23
2022-12-28T13:15:17.438Z,38.24
2022-12-28T13:20:21.235Z,39.01
2022-12-28T13:25:25.060Z,38.93
2022-12-28T13:30:27.812Z,39.28
2022-12-28T13:35:33.401Z,40.33
2022-12-28T13:40:37.700Z,40.17
2022-12-28T13:45:39.553Z,41.01
2022-12-28T13:50:41.210Z,39.62
2022-12-28T13:55:51.583Z,40.02
2022-12-28T14:00:55.541Z,39.17
2022-12-28T14:05:59.411Z,38.32
2022-12-28T14:11:02.241Z,39.55
2022-12-28T14:16:04.851Z,40.07
2022-12-28T14:21:06.816Z,38.96
2022-12-28T14:26:18.406Z,39.43
2022-12-28T14:31:31.609Z,38.29
2022-12-28T14:36:48.937Z,38.64
2022-12-28T14:41:50.932Z,39.73
2022-12-28T14:46:52.562Z,39.32
2022-12-28T14:52:09.828Z,40.35
2022-12-28T14:57:22.526Z,40.08
2022-12-28T15:02:33.289Z,41.13
2022-12-28T15:07:35.248Z,40.93
2022-12-28T15:12:36.716Z,41.20
2022-12-28T15:17:38.347Z,41.49
2022-12-28T15:22:40.098Z,41.47
2022-12-28T15:27:41.737Z,41.82
2022-12-28T15:32:43.434Z,41.48
2022-12-28T15:37:44.997Z,41.07
2022-12-28T15:42:46.552Z,41.77
2022-12-28T15:47:48.037Z,41.74
2022-12-28T15:52:49.621Z,41.89
2022-12-28T15:57:51.128Z,42.89
2022-12-28T16:02:52.801Z,43.34
2022-12-28T16:07:54.364Z,43.47
2022-12-28T16:12:55.883Z,43.37
2022-12-28T16:17:57.816Z,44.48
2022-12-28T16:22:59.450Z,44.59
2022-12-28T16:28:01.018Z,45.39
2022-12-28T16:33:03.053Z,45.31
2022-12-28T16:38:06.152Z,45.05
2022-12-28T16:43:07.911Z,46.20
2022-12-28T16:48:15.721Z,46.56
2022-12-28T16:53:22.805Z,46.86
2022-12-28T16:58:26.106Z,46.55
2022-12-28T17:03:27.620Z,46.37
2022-12-28T17:08:29.807Z,46.52
2022-12-28T17:13:31.283Z,46.82
2022-12-28T17:18:32.965Z,47.09
2022-12-28T17:23:34.548Z,46.96
2022-12-28T17:28:36.469Z,47.19
2022-12-28T17:33:40.444Z,47.13
2022-12-28T17:38:42.157Z,46.76
2022-12-28T17:43:52.063Z,46.87
2022-12-28T17:48:57.819Z,47.04
2022-12-28T17:53:59.402Z,46.54
2022-12-28T17:59:00.999Z,47.10
2022-12-28T18:04:02.551Z,47.02
2022-12-28T18:09:04.439Z,47.22
2022-12-28T18:14:06.004Z,47.42
2022-12-28T18:19:07.584Z,48.32
2022-12-28T18:24:12.654Z,48.27
2022-12-28T18:29:14.177Z,47.59
2022-12-28T18:34:15.688Z,48.23
2022-12-28T18:39:17.279Z,48.46
2022-12-28T18:44:19.002Z,47.73
2022-12-28T18:49:21.019Z,48.22
2022-12-28T18:54:22.657Z,47.99
2022-12-28T18:59:24.640Z,48.29
2022-12-28T19:04:26.721Z,47.43
2022-12-28T19:09:28.693Z,47.66
2022-12-28T19:14:30.247Z,47.67
2022-12-28T19:19:31.969Z,48.35
2022-12-28T19:24:33.683Z,49.28
2022-12-28T19:29:35.321Z,49.00
2022-12-28T19:34:36.926Z,49.09
2022-12-28T19:39:38.502Z,48.22
2022-12-28T19:44:40.035Z,49.25
2022-12-28T19:49:41.721Z,49.71
2022-12-28T19:54:43.223Z,49.00
2022-12-28T19:59:44.790Z,48.58
2022-12-28T20:04:46.459Z,48.50
2022-12-28T20:09:49.965Z,48.48
2022-12-28T20:14:51.526Z,47.75
2022-12-28T20:19:53.110Z,47.43
2022-12-28T20:24:54.934Z,47.69
2022-12-28T20:29:56.983Z,47.72
2022-12-28T20:34:58.762Z,47.05
2022-12-28T20:40:00.532Z,47.41
2022-12-28T20:45:02.154Z,47.42
2022-12-28T20:50:03.962Z,46.90
2022-12-28T20:55:05.989Z,46.05
2022-12-28T21:00:09.082Z,45.30
2022-12-28T21:05:11.290Z,45.27
2022-12-28T21:10:13.784Z,45.31
2022-12-28T21:15:16.412Z,44.94
2022-12-28T21:20:18.373Z,45.10
2022-12-28T21:25:20.030Z,45.28
2022-12-28T21:30:21.601Z,44.86
2022-12-28T21:35:26.727Z,44.86
2022-12-28T21:40:30.530Z,44.78
2022-12-28T21:45:32.122Z,44.31
2022-12-28T21:50:34.073Z,44.30
2022-12-28T21:55:35.764Z,44.93
2022-12-28T22:00:37.396Z,44.64
2022-12-28T22:05:39.096Z,44.89
2022-12-28T22:10:40.706Z,45.02
2022-12-28T22:15:42.290Z,44.85
2022-12-28T22:20:44.243Z,45.39
2022-12-28T22:25:45.827Z,45.87
2022-12-28T22:30:47.474Z,46.68
2022-12-28T22:35:49.047Z,46.95
2022-12-28T22:40:58.559Z,48.62
2022-12-28T22:46:05.481Z,48.31
2022-12-28T22:51:10.449Z,48.58
2022-12-28T22:56:14.364Z,48.66
2022-12-28T23:01:18.463Z,49.06
2022-12-28T23:06:20.189Z,49.52
2022-12-28T23:11:21.813Z,49.24
2022-12-28T23:16:23.532Z,50.22
2022-12-28T23:21:25.211Z,51.04
2022-12-28T23:26:26.752Z,51.17
2022-12-28T23:31:28.420Z,51.34
2022-12-28T23:36:30.016Z,52.17
2022-12-28T23:41:31.553Z,51.51
2022-12-28T23:46:33.261Z,50.24
2022-12-28T23:51:34.792Z,50.43
2022-12-28T23:56:36.353Z,50.69
